Flight Track Log - Related Links

Times and Time Zones

All times are in EDT time to prevent confusion due to time zone crossing. See the FFT333 flight status page for this flight to view local times or setup timezone preferences in your user account.


Time Position Orientation Groundspeed Altitude Reporting Facility
EDT Latitude Longitude Course Direction KTS MPH feet Rate Location/Type
Thu 10:14:55 AM 39.8333 -104.7667 201° Southwest 176 203 6,700  Level Denver TRACON
Thu 10:15:37 AM 39.8333 -104.8167 270° West 223 257 7,500 1,737 Climbing Denver TRACON
Thu 10:16:49 AM 39.7833 -104.9167 237° Southwest 305 351 10,000 2,045 Climbing Denver TRACON
Thu 10:17:05 AM 39.7572 -104.9208 187° South 298 343 10,500 2,154 Climbing Denver Center
Thu 10:18:07 AM 39.6653 -104.9306 185° South 332 382 12,800 2,683 Climbing Denver Center
Thu 10:19:08 AM 39.5611 -104.9175 174° South 353 406 16,000 2,732 Climbing Denver Center
Thu 10:20:00 AM 39.3743 -104.8813 201° Southwest  Level Estimated
Thu 10:20:10 AM 39.4653 -104.8842 165° South 358 412 18,400  Level Denver Center
Thu 10:21:11 AM 39.3664 -104.8511 166° South 365 420 20,700 2,244 Climbing Denver Center
Thu 10:22:13 AM 39.2539 -104.8114 165° South 391 450 23,000 2,032 Climbing Denver Center
Thu 10:23:15 AM 39.1464 -104.8600 199° South 415 478 24,900 1,463 Climbing Denver Center
Thu 10:24:16 AM 39.0381 -104.9167 202° Southwest 420 483 26,000 732 Climbing Denver Center
Thu 10:25:18 AM 38.9175 -104.9822 203° Southwest 421 484 26,400 968 Climbing Denver Center
Thu 10:26:20 AM 38.8142 -105.0364 202° Southwest 418 481 28,000 1,415 Climbing Denver Center
Thu 10:27:21 AM 38.7072 -105.0947 203° Southwest 429 494 29,300 1,268 Climbing Denver Center
Thu 10:28:23 AM 38.5803 -105.1611 202° Southwest 438 504 30,600 1,258 Climbing Denver Center
Thu 10:29:25 AM 38.4669 -105.2225 203° Southwest 450 518 31,900 1,935 Climbing Denver Center
Thu 10:30:27 AM 38.3369 -105.2936 203° Southwest 455 524 34,600 2,000 Climbing Denver Center
Thu 10:31:28 AM 38.2322 -105.3494 203° Southwest 440 506 36,000 683 Climbing Denver Center
Thu 10:32:30 AM 38.1103 -105.4142 203° Southwest 430 495 36,000  Level Denver Center
Thu 10:33:32 AM 38.0047 -105.4697 203° Southwest 429 494 36,000  Level Denver Center
Thu 10:34:34 AM 37.8828 -105.5358 203° Southwest 429 494 36,000  Level Denver Center
Thu 10:35:36 AM 37.7775 -105.5892 202° Southwest 427 491 36,000  Level Denver Center
Thu 10:36:38 AM 37.6553 -105.6533 203° Southwest 425 489 36,000  Level Denver Center
Thu 10:37:40 AM 37.5511 -105.7086 203° Southwest 425 489 36,000 48 Level Denver Center
Thu 10:38:42 AM 37.4431 -105.7647 202° Southwest 427 491 36,100  Climbing Denver Center
Thu 10:39:44 AM 37.3208 -105.8278 202° Southwest 425 489 36,000 -48 Descending Denver Center
Thu 10:40:46 AM 37.2131 -105.8744 199° South 426 490 36,000 -48 Level Denver Center
Thu 10:41:48 AM 37.0889 -105.9286 199° South 421 484 35,900 -484 Descending Denver Center
Thu 10:42:50 AM 36.9869 -105.9744 200° South 420 483 35,000 -1,016 Descending Denver Center
Thu 10:43:52 AM 36.8614 -106.0275 199° South 425 489 33,800 -1,016 Descending Denver Center
Thu 10:44:54 AM 36.7608 -106.0731 200° South 410 472 32,900 -871 Descending Denver Center
Thu 10:45:56 AM 36.6458 -106.1228 199° South 406 467 32,000 -462 Descending Denver Center
Thu 10:46:51 AM 36.5517 -106.1664 200° South 413 475 32,000  Level Albuquerque Center
Thu 10:47:53 AM 36.4361 -106.2175 200° South 398 458 32,000 -1,065 Level Albuquerque Center
Thu 10:48:55 AM 36.3375 -106.2628 200° South 395 455 29,800 -2,032 Descending Albuquerque Center
Thu 10:49:57 AM 36.2200 -106.3147 200° South 397 457 27,800 -2,256 Descending Albuquerque Center
Thu 10:51:00 AM 36.1228 -106.3575 200° South 401 461 25,100 -2,496 Descending Albuquerque Center
Thu 10:52:02 AM 36.0178 -106.4017 199° South 399 459 22,600 -1,887 Descending Albuquerque Center
Thu 10:53:04 AM 35.9211 -106.4447 200° South 378 435 21,200 -1,742 Descending Albuquerque Center
Thu 10:54:06 AM 35.8078 -106.4908 198° South 350 403 19,000 -1,742 Descending Albuquerque Center
Thu 10:55:08 AM 35.7211 -106.5253 198° South 344 396 17,600 -1,452 Descending Albuquerque Center
Thu 10:56:10 AM 35.6336 -106.5625 199° South 337 388 16,000 -1,500 Descending Albuquerque Center
Thu 10:57:12 AM 35.5494 -106.6003 200° South 328 377 14,500 -1,175 Descending Albuquerque Center
Thu 10:57:47 AM 35.4939 -106.6292 203° Southwest 316 364 14,100 -730 Descending Albuquerque Center
Thu 10:58:26 AM 35.4717 -106.6431 207° Southwest 312 359 13,600 -1,485 Descending Albuquerque Center
Thu 10:59:28 AM 35.3783 -106.6931 204° Southwest 305 351 11,600 -1,694 Descending Albuquerque Center
Thu 11:00:30 AM 35.2878 -106.7408 203° Southwest 299 344 10,100 -1,258 Descending Albuquerque Center
Thu 11:01:32 AM 35.2167 -106.7842 206° Southwest 292 336 9,000 -484 Descending Albuquerque Center
Thu 11:02:34 AM 35.1575 -106.8208 207° Southwest 263 303 9,100 -194 Climbing Albuquerque Center
Thu 11:03:36 AM 35.1028 -106.8450 200° South 238 274 8,600 -857 Descending Albuquerque Center
Thu 11:04:33 AM 35.0503 -106.8136 154° Southeast 221 254 7,400 -610 Descending Albuquerque Center
Thu 11:05:34 AM 35.0439 -106.7531 97° East 172 198 7,400 -397 Level Albuquerque Center
Thu 11:06:34 AM 35.0447 -106.6958 89° East 147 169 6,600 -730 Descending Albuquerque Center
Thu 11:07:29 AM 35.0439 -106.6544 91° East 146 168 6,000 -761 Descending Albuquerque Center
Thu 11:07:45 AM 35.0442 -106.6381 89° East 156 180 5,700 -385 Descending Albuquerque Center
Thu 11:08:47 AM 35.0442 -106.5933 90° East 151 174 5,500 -194 Descending Albuquerque Center

Login

Don't have an account? Register now (free) for customized features, flight alerts, and more!